createdAt,value
2022-08-28T00:03:17.454Z,100
2022-08-28T00:13:16.217Z,100
2022-08-28T00:23:16.199Z,100
2022-08-28T00:33:16.194Z,100
2022-08-28T00:43:16.206Z,100
2022-08-28T00:53:16.187Z,100
2022-08-28T01:03:16.176Z,100
2022-08-28T01:13:16.171Z,100
2022-08-28T01:23:16.166Z,100
2022-08-28T01:33:16.146Z,100
2022-08-28T01:43:16.140Z,100
2022-08-28T01:53:16.123Z,100
2022-08-28T02:03:16.117Z,100
2022-08-28T02:13:16.090Z,100
2022-08-28T02:23:16.109Z,100
2022-08-28T02:33:16.098Z,100
2022-08-28T02:43:16.086Z,100
2022-08-28T02:53:16.066Z,100
2022-08-28T03:03:16.084Z,100
2022-08-28T03:13:22.985Z,100
2022-08-28T03:23:16.045Z,100
2022-08-28T03:33:16.033Z,100
2022-08-28T03:43:16.015Z,100
2022-08-28T03:53:16.289Z,100
2022-08-28T04:03:16.132Z,100
2022-08-28T04:13:16.013Z,100
2022-08-28T04:23:15.989Z,100
2022-08-28T04:33:16.005Z,100
2022-08-28T04:43:15.989Z,100
2022-08-28T04:53:15.979Z,100
2022-08-28T05:03:15.953Z,100
2022-08-28T05:13:15.963Z,100
2022-08-28T05:23:16.105Z,100
2022-08-28T05:33:15.982Z,100
2022-08-28T05:43:15.927Z,100
2022-08-28T05:53:15.946Z,100
2022-08-28T06:03:17.617Z,100
2022-08-28T06:13:15.866Z,100
2022-08-28T06:23:15.914Z,100
2022-08-28T06:33:15.894Z,100
2022-08-28T06:43:15.895Z,100
2022-08-28T06:53:15.864Z,100
2022-08-28T07:03:15.866Z,100
2022-08-28T07:13:15.861Z,100
2022-08-28T07:23:15.847Z,100
2022-08-28T07:33:15.976Z,100
2022-08-28T07:43:15.899Z,100
2022-08-28T07:53:15.909Z,100
2022-08-28T08:03:15.933Z,100
2022-08-28T08:13:15.910Z,100
2022-08-28T08:23:15.916Z,100
2022-08-28T08:33:15.899Z,100
2022-08-28T08:43:15.877Z,100
2022-08-28T08:53:15.833Z,100
2022-08-28T09:03:15.825Z,100
2022-08-28T09:13:15.712Z,100
2022-08-28T09:23:15.713Z,100
2022-08-28T09:33:15.696Z,100
2022-08-28T09:43:15.812Z,100
2022-08-28T09:53:15.639Z,94
2022-08-28T10:03:15.677Z,86
2022-08-28T10:13:15.657Z,96
2022-08-28T10:23:17.590Z,94
2022-08-28T10:33:15.637Z,95
2022-08-28T10:43:15.626Z,89
2022-08-28T10:53:15.830Z,90
2022-08-28T11:03:33.401Z,91
2022-08-28T11:13:15.677Z,88
2022-08-28T11:23:15.587Z,95
2022-08-28T11:33:15.563Z,90
2022-08-28T11:43:16.336Z,91
2022-08-28T11:53:15.554Z,82
2022-08-28T12:03:15.635Z,76
2022-08-28T12:13:15.607Z,66
2022-08-28T12:23:15.605Z,66
2022-08-28T12:33:15.505Z,61
2022-08-28T12:43:15.772Z,65
2022-08-28T12:53:15.483Z,69
2022-08-28T13:03:15.460Z,68
2022-08-28T13:13:15.457Z,62
2022-08-28T13:23:15.424Z,62
2022-08-28T13:33:15.442Z,60
2022-08-28T13:43:15.785Z,64
2022-08-28T14:03:15.403Z,69
2022-08-28T14:13:15.381Z,65
2022-08-28T14:23:15.558Z,68
2022-08-28T14:33:15.544Z,68
2022-08-28T14:43:15.582Z,68
2022-08-28T14:53:15.448Z,68
2022-08-28T15:03:15.480Z,68
2022-08-28T15:13:15.465Z,67
2022-08-28T15:23:15.612Z,68
2022-08-28T15:33:15.424Z,65
2022-08-28T15:43:15.550Z,67
2022-08-28T15:53:15.465Z,78
2022-08-28T16:03:15.364Z,83
2022-08-28T16:13:15.329Z,87
2022-08-28T16:23:15.232Z,89
2022-08-28T16:33:15.236Z,93
2022-08-28T16:43:15.208Z,95
2022-08-28T16:53:15.224Z,95
2022-08-28T17:13:15.168Z,100
2022-08-28T17:23:15.160Z,100
2022-08-28T17:33:15.133Z,100
2022-08-28T17:43:15.136Z,100
2022-08-28T17:53:15.177Z,100
2022-08-28T18:03:15.104Z,100
2022-08-28T18:13:15.104Z,100
2022-08-28T18:23:15.088Z,100
2022-08-28T18:33:15.092Z,100
2022-08-28T18:43:15.085Z,100
2022-08-28T18:53:15.083Z,100
2022-08-28T19:03:15.074Z,100
2022-08-28T19:13:15.053Z,100
2022-08-28T19:23:17.582Z,100
2022-08-28T19:33:15.018Z,100
2022-08-28T19:43:16.512Z,100
2022-08-28T19:53:15.008Z,100
2022-08-28T20:03:15.010Z,100
2022-08-28T20:13:15.028Z,100
2022-08-28T20:23:14.973Z,100
2022-08-28T20:33:14.966Z,100
2022-08-28T20:43:14.950Z,100
2022-08-28T20:53:14.950Z,100
2022-08-28T21:03:14.939Z,100
2022-08-28T21:13:14.914Z,100
2022-08-28T21:23:14.936Z,100
2022-08-28T21:33:14.902Z,100
2022-08-28T21:43:14.903Z,100
2022-08-28T21:53:14.888Z,100
2022-08-28T22:03:14.901Z,100
2022-08-28T22:13:14.880Z,100
2022-08-28T22:23:14.861Z,100
2022-08-28T22:33:14.896Z,100
2022-08-28T22:43:14.866Z,100
2022-08-28T22:53:14.873Z,100
2022-08-28T23:03:14.886Z,100
2022-08-28T23:13:14.811Z,100
2022-08-28T23:23:14.815Z,100
2022-08-28T23:33:17.457Z,100
2022-08-28T23:43:14.776Z,100
2022-08-28T23:53:14.759Z,100
